sensor_id;sensor_type;location;lat;lon;timestamp;P1;durP1;ratioP1;P2;durP2;ratioP2
12072;SDS011;6098;49.004;8.372;2023-07-24T00:12:37;11.81;;;6.46;;
12072;SDS011;6098;49.004;8.372;2023-07-24T00:27:30;10.36;;;6.74;;
12072;SDS011;6098;49.004;8.372;2023-07-24T00:42:23;10.30;;;6.25;;
12072;SDS011;6098;49.004;8.372;2023-07-24T00:57:15;10.41;;;6.00;;
12072;SDS011;6098;49.004;8.372;2023-07-24T01:27:29;9.21;;;6.29;;
12072;SDS011;6098;49.004;8.372;2023-07-24T01:42:21;9.65;;;6.20;;
12072;SDS011;6098;49.004;8.372;2023-07-24T01:57:14;10.86;;;6.69;;
12072;SDS011;6098;49.004;8.372;2023-07-24T02:12:06;9.45;;;5.90;;
12072;SDS011;6098;49.004;8.372;2023-07-24T02:27:01;9.05;;;6.14;;
12072;SDS011;6098;49.004;8.372;2023-07-24T02:41:53;9.19;;;6.30;;
12072;SDS011;6098;49.004;8.372;2023-07-24T02:56:45;9.00;;;6.55;;
12072;SDS011;6098;49.004;8.372;2023-07-24T03:11:37;9.69;;;6.28;;
12072;SDS011;6098;49.004;8.372;2023-07-24T03:26:30;12.13;;;6.64;;
12072;SDS011;6098;49.004;8.372;2023-07-24T03:41:24;11.79;;;6.65;;
12072;SDS011;6098;49.004;8.372;2023-07-24T03:56:15;11.41;;;6.78;;
12072;SDS011;6098;49.004;8.372;2023-07-24T04:11:08;9.41;;;6.34;;
12072;SDS011;6098;49.004;8.372;2023-07-24T04:26:01;11.76;;;6.81;;
12072;SDS011;6098;49.004;8.372;2023-07-24T04:40:54;12.25;;;7.15;;
12072;SDS011;6098;49.004;8.372;2023-07-24T04:55:47;10.34;;;6.84;;
12072;SDS011;6098;49.004;8.372;2023-07-24T05:10:39;8.36;;;6.74;;
12072;SDS011;6098;49.004;8.372;2023-07-24T05:25:32;8.74;;;6.60;;
12072;SDS011;6098;49.004;8.372;2023-07-24T05:40:24;9.24;;;6.82;;
12072;SDS011;6098;49.004;8.372;2023-07-24T05:55:17;9.40;;;6.71;;
12072;SDS011;6098;49.004;8.372;2023-07-24T06:10:13;11.96;;;6.65;;
12072;SDS011;6098;49.004;8.372;2023-07-24T06:25:05;12.55;;;6.54;;
12072;SDS011;6098;49.004;8.372;2023-07-24T06:39:58;9.00;;;6.59;;
12072;SDS011;6098;49.004;8.372;2023-07-24T06:54:50;9.90;;;6.90;;
12072;SDS011;6098;49.004;8.372;2023-07-24T07:09:43;9.65;;;6.94;;
12072;SDS011;6098;49.004;8.372;2023-07-24T07:24:36;10.51;;;7.15;;
12072;SDS011;6098;49.004;8.372;2023-07-24T07:39:29;11.27;;;7.53;;
12072;SDS011;6098;49.004;8.372;2023-07-24T07:54:20;12.96;;;7.85;;
12072;SDS011;6098;49.004;8.372;2023-07-24T08:09:13;12.15;;;8.13;;
12072;SDS011;6098;49.004;8.372;2023-07-24T08:24:10;11.14;;;7.74;;
12072;SDS011;6098;49.004;8.372;2023-07-24T08:39:02;12.95;;;8.01;;
12072;SDS011;6098;49.004;8.372;2023-07-24T08:53:58;10.41;;;7.72;;
12072;SDS011;6098;49.004;8.372;2023-07-24T09:08:53;11.98;;;7.46;;
12072;SDS011;6098;49.004;8.372;2023-07-24T09:23:45;9.56;;;6.72;;
12072;SDS011;6098;49.004;8.372;2023-07-24T09:38:38;12.64;;;6.96;;
12072;SDS011;6098;49.004;8.372;2023-07-24T09:53:32;9.32;;;6.47;;
12072;SDS011;6098;49.004;8.372;2023-07-24T10:08:26;8.63;;;6.79;;
12072;SDS011;6098;49.004;8.372;2023-07-24T10:23:17;8.61;;;6.96;;
12072;SDS011;6098;49.004;8.372;2023-07-24T10:38:11;8.76;;;6.69;;
12072;SDS011;6098;49.004;8.372;2023-07-24T10:53:02;7.69;;;6.10;;
12072;SDS011;6098;49.004;8.372;2023-07-24T11:08:08;7.03;;;5.87;;
12072;SDS011;6098;49.004;8.372;2023-07-24T11:22:57;7.60;;;5.94;;
12072;SDS011;6098;49.004;8.372;2023-07-24T11:37:52;7.65;;;5.93;;
12072;SDS011;6098;49.004;8.372;2023-07-24T11:52:45;12.23;;;6.19;;
12072;SDS011;6098;49.004;8.372;2023-07-24T12:07:42;8.90;;;5.94;;
12072;SDS011;6098;49.004;8.372;2023-07-24T12:37:55;6.54;;;5.14;;
12072;SDS011;6098;49.004;8.372;2023-07-24T12:52:51;6.19;;;4.84;;
12072;SDS011;6098;49.004;8.372;2023-07-24T13:07:44;7.47;;;5.14;;
12072;SDS011;6098;49.004;8.372;2023-07-24T13:22:39;6.66;;;4.87;;
12072;SDS011;6098;49.004;8.372;2023-07-24T13:37:32;7.47;;;4.87;;
12072;SDS011;6098;49.004;8.372;2023-07-24T13:52:26;10.20;;;5.29;;
12072;SDS011;6098;49.004;8.372;2023-07-24T14:07:18;5.63;;;4.73;;
12072;SDS011;6098;49.004;8.372;2023-07-24T14:22:13;6.84;;;4.97;;
12072;SDS011;6098;49.004;8.372;2023-07-24T14:37:08;7.39;;;4.72;;
12072;SDS011;6098;49.004;8.372;2023-07-24T14:52:04;4.44;;;4.01;;
12072;SDS011;6098;49.004;8.372;2023-07-24T15:07:08;6.60;;;4.30;;
12072;SDS011;6098;49.004;8.372;2023-07-24T15:22:00;6.40;;;4.99;;
12072;SDS011;6098;49.004;8.372;2023-07-24T15:36:53;5.76;;;3.86;;
12072;SDS011;6098;49.004;8.372;2023-07-24T15:51:49;6.61;;;4.07;;
12072;SDS011;6098;49.004;8.372;2023-07-24T16:21:45;5.29;;;4.32;;
12072;SDS011;6098;49.004;8.372;2023-07-24T16:36:35;5.15;;;3.69;;
12072;SDS011;6098;49.004;8.372;2023-07-24T16:51:28;4.57;;;3.56;;
12072;SDS011;6098;49.004;8.372;2023-07-24T17:06:20;3.36;;;2.83;;
12072;SDS011;6098;49.004;8.372;2023-07-24T17:21:12;6.51;;;5.53;;
12072;SDS011;6098;49.004;8.372;2023-07-24T17:36:05;3.40;;;2.20;;
12072;SDS011;6098;49.004;8.372;2023-07-24T17:51:01;1.86;;;1.69;;
12072;SDS011;6098;49.004;8.372;2023-07-24T18:06:00;1.87;;;1.67;;
12072;SDS011;6098;49.004;8.372;2023-07-24T18:35:59;3.78;;;1.90;;
12072;SDS011;6098;49.004;8.372;2023-07-24T18:50:51;4.82;;;3.51;;
12072;SDS011;6098;49.004;8.372;2023-07-24T19:05:42;2.85;;;1.87;;
12072;SDS011;6098;49.004;8.372;2023-07-24T19:35:44;2.67;;;1.89;;
12072;SDS011;6098;49.004;8.372;2023-07-24T19:50:50;2.00;;;1.76;;
12072;SDS011;6098;49.004;8.372;2023-07-24T20:05:52;3.54;;;2.14;;
12072;SDS011;6098;49.004;8.372;2023-07-24T20:36:07;2.96;;;2.41;;
12072;SDS011;6098;49.004;8.372;2023-07-24T20:51:01;3.26;;;2.50;;
12072;SDS011;6098;49.004;8.372;2023-07-24T21:05:57;2.65;;;2.30;;
12072;SDS011;6098;49.004;8.372;2023-07-24T21:20:49;2.30;;;2.10;;
12072;SDS011;6098;49.004;8.372;2023-07-24T21:35:42;3.05;;;2.10;;
12072;SDS011;6098;49.004;8.372;2023-07-24T21:50:37;3.71;;;2.12;;
12072;SDS011;6098;49.004;8.372;2023-07-24T22:05:29;3.37;;;2.31;;
12072;SDS011;6098;49.004;8.372;2023-07-24T22:20:22;3.85;;;2.30;;
12072;SDS011;6098;49.004;8.372;2023-07-24T22:35:15;3.72;;;2.21;;
12072;SDS011;6098;49.004;8.372;2023-07-24T22:50:09;2.70;;;2.29;;
12072;SDS011;6098;49.004;8.372;2023-07-24T23:05:03;2.40;;;2.14;;
12072;SDS011;6098;49.004;8.372;2023-07-24T23:19:55;3.16;;;2.30;;
12072;SDS011;6098;49.004;8.372;2023-07-24T23:50:09;2.70;;;2.24;;
